createdAt,value
2023-04-11T00:02:14.605Z,10.25
2023-04-11T00:04:43.688Z,10.24
2023-04-11T00:07:11.499Z,10.24
2023-04-11T00:09:39.180Z,10.24
2023-04-11T00:12:07.692Z,10.24
2023-04-11T00:14:35.321Z,10.23
2023-04-11T00:17:02.964Z,10.20
2023-04-11T00:19:33.352Z,10.18
2023-04-11T00:22:02.897Z,10.15
2023-04-11T00:24:30.547Z,10.11
2023-04-11T00:26:58.430Z,10.06
2023-04-11T00:29:26.012Z,10.02
2023-04-11T00:31:55.470Z,9.98
2023-04-11T00:34:23.333Z,9.91
2023-04-11T00:36:51.510Z,9.85
2023-04-11T00:39:21.225Z,9.79
2023-04-11T00:41:49.158Z,9.73
2023-04-11T00:44:17.159Z,9.64
2023-04-11T00:46:46.934Z,9.58
2023-04-11T00:49:14.661Z,9.50
2023-04-11T00:51:42.313Z,9.43
2023-04-11T00:54:10.363Z,9.34
2023-04-11T00:56:39.639Z,9.27
2023-04-11T00:59:07.296Z,9.19
2023-04-11T01:01:36.351Z,9.12
2023-04-11T01:04:04.670Z,9.02
2023-04-11T01:06:33.691Z,8.97
2023-04-11T01:09:01.414Z,8.92
2023-04-11T01:11:29.237Z,8.87
2023-04-11T01:13:58.179Z,8.84
2023-04-11T01:16:25.783Z,8.80
2023-04-11T01:18:53.599Z,8.76
2023-04-11T01:21:22.328Z,8.75
2023-04-11T01:23:52.823Z,8.75
2023-04-11T01:26:20.734Z,8.75
2023-04-11T01:28:48.312Z,8.71
2023-04-11T01:31:16.270Z,8.67
2023-04-11T01:33:44.179Z,8.64
2023-04-11T01:36:12.031Z,8.62
2023-04-11T01:38:39.837Z,8.58
2023-04-11T01:41:11.309Z,8.58
2023-04-11T01:43:39.022Z,8.56
2023-04-11T01:46:07.677Z,8.54
2023-04-11T01:48:38.551Z,8.52
2023-04-11T01:51:07.422Z,8.51
2023-04-11T01:53:35.340Z,8.49
2023-04-11T01:56:02.993Z,8.49
2023-04-11T01:58:31.929Z,8.46
2023-04-11T02:00:59.707Z,8.45
2023-04-11T02:03:27.494Z,8.45
2023-04-11T02:05:55.740Z,8.44
2023-04-11T02:08:24.004Z,8.43
2023-04-11T02:10:51.691Z,8.45
2023-04-11T02:13:19.326Z,8.43
2023-04-11T02:15:48.298Z,8.43
2023-04-11T02:18:16.123Z,8.45
2023-04-11T02:20:43.774Z,8.48
2023-04-11T02:23:12.725Z,8.49
2023-04-11T02:25:40.453Z,8.52
2023-04-11T02:28:08.435Z,8.54
2023-04-11T02:30:36.247Z,8.55
2023-04-11T02:33:05.429Z,8.58
2023-04-11T02:35:34.030Z,8.60
2023-04-11T02:38:01.704Z,8.63
2023-04-11T02:40:31.119Z,8.64
2023-04-11T02:43:01.138Z,8.66
2023-04-11T02:45:29.016Z,8.67
2023-04-11T02:47:56.600Z,8.67
2023-04-11T02:50:27.111Z,8.67
2023-04-11T02:52:55.430Z,8.69
2023-04-11T02:55:27.103Z,8.70
2023-04-11T02:57:54.768Z,8.71
2023-04-11T03:00:23.008Z,8.71
2023-04-11T03:02:57.681Z,8.74
2023-04-11T03:05:27.573Z,8.78
2023-04-11T03:07:57.731Z,8.78
2023-04-11T03:10:26.096Z,8.82
2023-04-11T03:12:55.778Z,8.83
2023-04-11T03:15:23.575Z,8.82
2023-04-11T03:17:51.291Z,8.80
2023-04-11T03:20:20.213Z,8.82
2023-04-11T03:22:54.885Z,8.81
2023-04-11T03:25:23.517Z,8.76
2023-04-11T03:27:52.299Z,8.74
2023-04-11T03:30:19.960Z,8.72
2023-04-11T03:32:48.875Z,8.71
2023-04-11T03:35:18.728Z,8.69
2023-04-11T03:37:47.987Z,8.65
2023-04-11T03:40:18.716Z,8.64
2023-04-11T03:42:52.215Z,8.60
2023-04-11T03:45:23.967Z,8.60
2023-04-11T03:47:54.617Z,8.58
2023-04-11T03:50:26.204Z,8.56
2023-04-11T03:52:58.667Z,8.56
2023-04-11T03:55:27.699Z,8.57
2023-04-11T03:57:57.615Z,8.57
2023-04-11T04:00:26.514Z,8.57
2023-04-11T04:03:02.947Z,8.54
2023-04-11T04:05:30.821Z,8.53
2023-04-11T04:07:58.570Z,8.52
2023-04-11T04:10:48.393Z,8.50
2023-04-11T04:13:16.833Z,8.48
2023-04-11T04:15:51.422Z,8.48
2023-04-11T04:18:23.242Z,8.45
2023-04-11T04:20:51.761Z,8.45
2023-04-11T04:23:20.886Z,8.42
2023-04-11T04:26:13.194Z,8.41
2023-04-11T04:28:46.154Z,8.39
2023-04-11T04:31:25.782Z,8.39
2023-04-11T04:34:03.710Z,8.36
2023-04-11T04:36:31.588Z,8.35
2023-04-11T04:39:02.136Z,8.31
2023-04-11T04:41:36.453Z,8.29
2023-04-11T04:44:05.409Z,8.26
2023-04-11T04:46:38.497Z,8.22
2023-04-11T04:49:07.989Z,8.21
2023-04-11T04:51:37.279Z,8.19
2023-04-11T04:54:05.817Z,8.19
2023-04-11T04:56:33.649Z,8.18
2023-04-11T04:59:02.733Z,8.16
2023-04-11T05:01:33.020Z,8.15
2023-04-11T05:04:02.234Z,8.13
2023-04-11T05:06:47.425Z,8.13
2023-04-11T05:09:16.168Z,8.10
2023-04-11T05:11:44.104Z,8.08
2023-04-11T05:14:13.196Z,8.09
2023-04-11T05:16:42.680Z,8.09
2023-04-11T05:19:10.852Z,8.10
2023-04-11T05:21:42.608Z,8.11
2023-04-11T05:24:10.709Z,8.13
2023-04-11T05:26:38.876Z,8.14
2023-04-11T05:29:07.580Z,8.14
2023-04-11T05:31:37.767Z,8.15
2023-04-11T05:34:05.772Z,8.17
2023-04-11T05:36:33.664Z,8.19
2023-04-11T05:39:02.022Z,8.21
2023-04-11T05:41:29.803Z,8.27
2023-04-11T05:43:57.525Z,8.28
2023-04-11T05:46:27.650Z,8.31
2023-04-11T05:48:57.944Z,8.33
2023-04-11T05:52:41.463Z,8.35
2023-04-11T05:55:17.359Z,8.38
2023-04-11T05:57:45.361Z,8.40
2023-04-11T06:00:16.657Z,8.42
2023-04-11T06:02:49.313Z,8.46
2023-04-11T06:05:18.141Z,8.46
2023-04-11T06:07:47.612Z,8.47
2023-04-11T06:10:15.785Z,8.49
2023-04-11T06:12:43.689Z,8.50
2023-04-11T06:15:14.100Z,8.50
2023-04-11T06:17:42.199Z,8.51
2023-04-11T06:20:11.699Z,8.53
2023-04-11T06:22:40.302Z,8.55
2023-04-11T06:25:10.612Z,8.58
2023-04-11T06:27:38.287Z,8.61
2023-04-11T06:30:12.727Z,8.62
2023-04-11T06:32:43.444Z,8.65
2023-04-11T06:35:11.374Z,8.67
2023-04-11T06:37:39.677Z,8.70
2023-04-11T06:40:12.865Z,8.73
2023-04-11T06:42:40.891Z,8.77
2023-04-11T06:45:12.063Z,8.80
2023-04-11T06:47:42.977Z,8.83
2023-04-11T06:50:12.077Z,8.85
2023-04-11T06:52:40.087Z,8.86
2023-04-11T06:55:10.535Z,8.89
2023-04-11T06:57:38.286Z,8.88
2023-04-11T07:00:12.643Z,8.84
2023-04-11T07:02:42.908Z,8.80
2023-04-11T07:05:11.176Z,8.73
2023-04-11T07:07:39.147Z,8.68
2023-04-11T07:10:10.172Z,8.65
2023-04-11T07:12:38.194Z,8.65
2023-04-11T07:15:07.088Z,8.67
2023-04-11T07:17:34.822Z,8.69
2023-04-11T07:20:06.565Z,8.73
2023-04-11T07:22:34.979Z,8.78
2023-04-11T07:25:02.619Z,8.80
2023-04-11T07:27:32.163Z,8.87
2023-04-11T07:29:59.949Z,8.93
2023-04-11T07:32:27.677Z,9.01
2023-04-11T07:34:55.817Z,9.04
2023-04-11T07:37:23.462Z,9.11
2023-04-11T07:39:51.945Z,9.17
2023-04-11T07:42:19.603Z,9.26
2023-04-11T07:44:48.597Z,9.35
2023-04-11T07:47:26.535Z,9.44
2023-04-11T07:49:54.175Z,9.51
2023-04-11T07:52:21.805Z,9.54
2023-04-11T07:54:51.320Z,9.62
2023-04-11T07:57:19.038Z,9.70
2023-04-11T07:59:50.356Z,9.83
2023-04-11T08:02:18.103Z,9.91
2023-04-11T08:04:46.328Z,9.93
2023-04-11T08:07:14.030Z,9.98
2023-04-11T08:09:43.546Z,10.04
2023-04-11T08:12:12.628Z,10.15
2023-04-11T08:14:40.407Z,10.26
2023-04-11T08:17:21.000Z,10.40
2023-04-11T08:19:55.708Z,10.58
2023-04-11T08:22:23.349Z,10.75
2023-04-11T08:24:51.007Z,10.84
2023-04-11T08:27:23.380Z,10.81
2023-04-11T08:29:51.142Z,10.72
2023-04-11T08:32:23.390Z,10.63
2023-04-11T08:34:53.347Z,10.57
2023-04-11T08:37:21.205Z,10.46
2023-04-11T08:39:48.825Z,10.32
2023-04-11T08:42:25.617Z,10.21
2023-04-11T08:44:57.115Z,9.97
2023-04-11T08:47:28.003Z,9.65
2023-04-11T08:49:57.904Z,9.40
2023-04-11T08:52:29.512Z,9.22
2023-04-11T08:54:57.548Z,9.03
2023-04-11T08:57:27.679Z,8.95
2023-04-11T08:59:56.473Z,8.93
2023-04-11T09:02:24.345Z,8.96
2023-04-11T09:04:53.690Z,8.99
2023-04-11T09:07:22.114Z,9.08
2023-04-11T09:09:49.741Z,9.28
2023-04-11T09:12:22.581Z,9.53
2023-04-11T09:14:50.697Z,9.83
2023-04-11T09:17:18.551Z,9.96
2023-04-11T09:19:48.868Z,10.09
2023-04-11T09:22:18.387Z,10.26
2023-04-11T09:24:46.737Z,10.43
2023-04-11T09:27:16.967Z,10.63
2023-04-11T09:29:46.587Z,10.67
2023-04-11T09:32:31.265Z,10.72
2023-04-11T09:35:09.694Z,10.72
2023-04-11T09:37:46.841Z,10.77
2023-04-11T09:40:16.608Z,10.79
2023-04-11T09:42:48.886Z,10.84
2023-04-11T09:45:18.922Z,10.87
2023-04-11T09:47:47.239Z,10.91
2023-04-11T09:50:15.657Z,11.17
2023-04-11T09:52:46.098Z,11.28
2023-04-11T09:55:16.356Z,11.41
2023-04-11T09:57:46.823Z,11.64
2023-04-11T10:00:18.340Z,11.90
2023-04-11T10:02:48.936Z,11.96
2023-04-11T10:05:18.173Z,11.93
2023-04-11T10:07:49.824Z,11.86
2023-04-11T10:10:22.339Z,11.83
2023-04-11T10:12:50.994Z,11.84
2023-04-11T10:15:19.276Z,11.77
2023-04-11T10:18:09.145Z,11.83
2023-04-11T10:20:46.005Z,11.86
2023-04-11T10:23:16.420Z,11.77
2023-04-11T10:25:56.123Z,11.78
2023-04-11T10:28:38.708Z,11.86
2023-04-11T10:31:09.047Z,11.93
2023-04-11T10:33:38.706Z,12.03
2023-04-11T10:36:10.203Z,12.14
2023-04-11T10:38:49.809Z,12.30
2023-04-11T10:41:35.810Z,12.46
2023-04-11T10:44:20.861Z,12.67
2023-04-11T10:46:51.189Z,12.86
2023-04-11T10:49:36.352Z,13.04
2023-04-11T10:52:23.740Z,13.13
2023-04-11T10:54:54.211Z,13.02
2023-04-11T10:57:22.976Z,13.03
2023-04-11T11:00:15.440Z,13.14
2023-04-11T11:02:43.879Z,12.95
2023-04-11T11:05:23.644Z,12.81
2023-04-11T11:07:54.172Z,12.77
2023-04-11T11:10:40.711Z,12.79
2023-04-11T11:13:08.634Z,12.79
2023-04-11T11:15:39.125Z,12.87
2023-04-11T11:18:10.082Z,13.02
2023-04-11T11:20:39.268Z,13.21
2023-04-11T11:23:10.566Z,13.30
2023-04-11T11:25:42.555Z,13.35
2023-04-11T11:28:13.061Z,13.54
2023-04-11T11:30:54.989Z,13.72
2023-04-11T11:33:27.931Z,13.65
2023-04-11T11:35:58.283Z,13.63
2023-04-11T11:38:30.171Z,13.62
2023-04-11T11:41:00.164Z,13.81
2023-04-11T11:43:28.766Z,13.91
2023-04-11T11:46:16.298Z,13.79
2023-04-11T11:48:58.596Z,13.68
2023-04-11T11:51:26.753Z,13.61
2023-04-11T11:54:08.668Z,13.50
2023-04-11T11:56:38.185Z,13.39
2023-04-11T11:59:06.711Z,13.28
2023-04-11T12:01:35.125Z,13.13
2023-04-11T12:04:04.397Z,13.02
2023-04-11T12:06:32.844Z,12.83
2023-04-11T12:09:04.847Z,12.64
2023-04-11T12:11:41.493Z,12.67
2023-04-11T12:14:09.947Z,12.96
2023-04-11T12:16:38.699Z,13.44
2023-04-11T12:19:06.479Z,13.85
2023-04-11T12:21:34.139Z,13.90
2023-04-11T12:24:01.800Z,13.98
2023-04-11T12:26:29.676Z,14.26
2023-04-11T12:29:03.942Z,14.50
2023-04-11T12:31:32.528Z,14.80
2023-04-11T12:34:01.373Z,15.00
2023-04-11T12:36:29.201Z,15.33
2023-04-11T12:38:57.211Z,15.51
2023-04-11T12:43:55.974Z,15.82
2023-04-11T12:46:28.439Z,15.86
2023-04-11T12:48:56.481Z,15.91
2023-04-11T12:51:25.218Z,16.01
2023-04-11T12:53:53.568Z,15.89
2023-04-11T12:56:22.079Z,15.62
2023-04-11T12:58:50.400Z,15.42
2023-04-11T13:01:18.777Z,15.31
2023-04-11T13:03:48.193Z,15.24
2023-04-11T13:06:16.905Z,15.05
2023-04-11T13:08:44.668Z,14.85
2023-04-11T13:11:13.100Z,14.80
2023-04-11T13:13:40.888Z,14.93
2023-04-11T13:16:09.911Z,15.06
2023-04-11T13:18:37.753Z,15.05
2023-04-11T13:21:07.602Z,14.97
2023-04-11T13:23:36.118Z,14.81
2023-04-11T13:26:03.848Z,14.75
2023-04-11T13:28:31.897Z,14.74
2023-04-11T13:30:59.773Z,14.74
2023-04-11T13:33:27.856Z,15.08
2023-04-11T13:35:55.668Z,15.32
2023-04-11T13:38:25.741Z,15.58
2023-04-11T13:40:53.586Z,15.83
2023-04-11T13:43:21.911Z,15.99
2023-04-11T13:45:49.983Z,16.08
2023-04-11T13:48:17.841Z,16.17
2023-04-11T13:50:45.889Z,16.36
2023-04-11T13:53:13.743Z,16.53
2023-04-11T13:55:45.043Z,16.82
2023-04-11T13:58:14.490Z,16.96
2023-04-11T14:00:42.402Z,16.93
2023-04-11T14:03:10.266Z,16.76
2023-04-11T14:05:38.510Z,16.60
2023-04-11T14:08:07.275Z,16.41
2023-04-11T14:10:35.245Z,16.28
2023-04-11T14:13:05.491Z,16.13
2023-04-11T14:15:34.097Z,15.93
2023-04-11T14:18:02.396Z,15.74
2023-04-11T14:20:30.357Z,15.47
2023-04-11T14:22:58.307Z,15.11
2023-04-11T14:25:26.464Z,14.81
2023-04-11T14:27:54.216Z,14.56
2023-04-11T14:30:23.382Z,14.41
2023-04-11T14:32:51.518Z,14.33
2023-04-11T14:35:27.623Z,14.28
2023-04-11T14:37:57.176Z,14.28
2023-04-11T14:40:25.216Z,14.11
2023-04-11T14:42:53.063Z,13.89
2023-04-11T14:45:20.811Z,13.80
2023-04-11T14:47:49.976Z,13.74
2023-04-11T14:50:18.351Z,13.68
2023-04-11T14:52:49.170Z,13.71
2023-04-11T14:55:17.889Z,13.68
2023-04-11T14:57:47.415Z,13.59
2023-04-11T15:00:20.231Z,13.30
2023-04-11T15:02:51.957Z,12.65
2023-04-11T15:05:20.639Z,12.18
2023-04-11T15:07:50.937Z,11.97
2023-04-11T15:10:20.519Z,11.73
2023-04-11T15:12:51.099Z,11.50
2023-04-11T15:15:19.591Z,11.29
2023-04-11T15:17:50.867Z,11.10
2023-04-11T15:20:20.395Z,11.02
2023-04-11T15:22:49.919Z,11.03
2023-04-11T15:25:17.691Z,11.06
2023-04-11T15:27:45.680Z,10.92
2023-04-11T15:30:13.681Z,10.78
2023-04-11T15:32:44.076Z,10.72
2023-04-11T15:35:13.243Z,10.74
2023-04-11T15:37:41.089Z,10.75
2023-04-11T15:40:12.060Z,10.85
2023-04-11T15:42:40.271Z,10.90
2023-04-11T15:45:08.985Z,11.01
2023-04-11T15:47:38.843Z,11.09
2023-04-11T15:50:10.386Z,11.14
2023-04-11T15:52:39.662Z,11.19
2023-04-11T15:55:08.786Z,11.27
2023-04-11T15:57:36.594Z,11.28
2023-04-11T16:00:09.263Z,11.25
2023-04-11T16:02:37.772Z,11.23
2023-04-11T16:05:07.848Z,11.09
2023-04-11T16:07:35.725Z,10.97
2023-04-11T16:10:06.011Z,10.78
2023-04-11T16:12:34.096Z,10.59
2023-04-11T16:15:02.182Z,10.48
2023-04-11T16:17:30.365Z,10.38
2023-04-11T16:19:58.164Z,10.33
2023-04-11T16:22:25.936Z,10.25
2023-04-11T16:24:54.242Z,10.16
2023-04-11T16:27:23.336Z,10.09
2023-04-11T16:29:51.123Z,9.97
2023-04-11T16:32:19.916Z,9.94
2023-04-11T16:34:48.147Z,9.85
2023-04-11T16:37:19.029Z,9.77
2023-04-11T16:39:46.746Z,9.72
2023-04-11T16:42:14.741Z,9.72
2023-04-11T16:44:44.225Z,9.69
2023-04-11T16:47:12.010Z,9.59
2023-04-11T16:49:39.645Z,9.50
2023-04-11T16:52:07.370Z,9.46
2023-04-11T16:54:35.334Z,9.40
2023-04-11T16:57:03.074Z,9.36
2023-04-11T16:59:31.274Z,9.31
2023-04-11T17:02:00.392Z,9.26
2023-04-11T17:04:28.317Z,9.25
2023-04-11T17:06:57.450Z,9.21
2023-04-11T17:09:25.206Z,9.22
2023-04-11T17:11:53.111Z,9.22
2023-04-11T17:14:20.958Z,9.16
2023-04-11T17:16:48.684Z,9.13
2023-04-11T17:19:17.800Z,9.13
2023-04-11T17:21:45.518Z,9.13
2023-04-11T17:24:13.251Z,9.08
2023-04-11T17:26:41.094Z,9.07
2023-04-11T17:29:10.771Z,9.05
2023-04-11T17:31:38.539Z,9.06
2023-04-11T17:34:06.248Z,9.03
2023-04-11T17:36:42.426Z,8.97
2023-04-11T17:39:11.171Z,8.90
2023-04-11T17:41:38.976Z,8.81
2023-04-11T17:44:06.689Z,8.72
2023-04-11T17:46:34.434Z,8.63
2023-04-11T17:49:02.332Z,8.56
2023-04-11T17:51:30.034Z,8.50
2023-04-11T17:53:59.540Z,8.42
2023-04-11T17:56:27.517Z,8.39
2023-04-11T17:58:56.218Z,8.30
2023-04-11T18:01:24.783Z,8.16
2023-04-11T18:03:52.571Z,8.03
2023-04-11T18:06:21.011Z,7.91
2023-04-11T18:08:51.149Z,7.80
2023-04-11T18:11:21.154Z,7.74
2023-04-11T18:13:53.777Z,7.66
2023-04-11T18:16:22.254Z,7.59
2023-04-11T18:18:49.968Z,7.52
2023-04-11T18:21:18.002Z,7.41
2023-04-11T18:23:45.926Z,7.30
2023-04-11T18:26:13.689Z,7.22
2023-04-11T18:28:42.748Z,7.20
2023-04-11T18:31:10.991Z,7.15
2023-04-11T18:33:42.691Z,7.11
2023-04-11T18:36:12.036Z,7.05
2023-04-11T18:38:39.840Z,6.98
2023-04-11T18:41:08.339Z,6.85
2023-04-11T18:43:38.103Z,6.72
2023-04-11T18:46:09.641Z,6.62
2023-04-11T18:48:37.801Z,6.48
2023-04-11T18:51:06.181Z,6.41
2023-04-11T18:53:34.909Z,6.37
2023-04-11T18:56:04.074Z,6.31
2023-04-11T18:58:34.243Z,6.29
2023-04-11T19:01:14.108Z,6.28
2023-04-11T19:03:45.910Z,6.25
2023-04-11T19:06:14.240Z,6.24
2023-04-11T19:08:41.983Z,6.20
2023-04-11T19:11:09.970Z,6.10
2023-04-11T19:13:37.731Z,6.02
2023-04-11T19:16:06.423Z,5.97
2023-04-11T19:18:34.448Z,5.94
2023-04-11T19:21:03.490Z,5.90
2023-04-11T19:23:31.188Z,5.81
2023-04-11T19:26:00.577Z,5.70
2023-04-11T19:28:28.350Z,5.62
2023-04-11T19:30:56.497Z,5.54
2023-04-11T19:33:26.088Z,5.46
2023-04-11T19:35:54.246Z,5.39
2023-04-11T19:38:23.455Z,5.32
2023-04-11T19:40:51.151Z,5.28
2023-04-11T19:43:19.765Z,5.23
2023-04-11T19:45:47.603Z,5.19
2023-04-11T19:48:16.191Z,5.17
2023-04-11T19:50:43.882Z,5.15
2023-04-11T19:53:11.484Z,5.10
2023-04-11T19:55:41.157Z,5.01
2023-04-11T19:58:08.877Z,4.91
2023-04-11T20:00:38.489Z,4.81
2023-04-11T20:03:08.059Z,4.71
2023-04-11T20:05:36.052Z,4.65
2023-04-11T20:08:03.784Z,4.61
2023-04-11T20:10:31.716Z,4.58
2023-04-11T20:13:01.010Z,4.54
2023-04-11T20:15:29.103Z,4.49
2023-04-11T20:17:56.797Z,4.47
2023-04-11T20:20:27.854Z,4.41
2023-04-11T20:22:55.621Z,4.39
2023-04-11T20:25:23.744Z,4.38
2023-04-11T20:27:51.381Z,4.37
2023-04-11T20:30:20.962Z,4.35
2023-04-11T20:32:48.617Z,4.35
2023-04-11T20:35:16.278Z,4.33
2023-04-11T20:37:44.351Z,4.31
2023-04-11T20:40:13.919Z,4.27
2023-04-11T20:42:42.677Z,4.27
2023-04-11T20:45:12.824Z,4.26
2023-04-11T20:47:44.806Z,4.21
2023-04-11T20:50:14.639Z,4.17
2023-04-11T20:52:43.494Z,4.11
2023-04-11T20:55:12.597Z,4.09
2023-04-11T20:57:40.902Z,4.07
2023-04-11T21:00:14.108Z,4.05
2023-04-11T21:02:45.192Z,4.03
2023-04-11T21:05:13.717Z,4.03
2023-04-11T21:07:43.084Z,3.98
2023-04-11T21:10:12.105Z,3.90
2023-04-11T21:12:39.822Z,3.84
2023-04-11T21:15:08.688Z,3.79
2023-04-11T21:17:37.317Z,3.72
2023-04-11T21:20:17.510Z,3.65
2023-04-11T21:22:45.486Z,3.57
2023-04-11T21:25:13.198Z,3.49
2023-04-11T21:27:41.428Z,3.45
2023-04-11T21:30:10.686Z,3.38
2023-04-11T21:32:38.422Z,3.32
2023-04-11T21:35:08.933Z,3.28
2023-04-11T21:37:36.754Z,3.25
2023-04-11T21:40:04.830Z,3.24
2023-04-11T21:42:32.659Z,3.22
2023-04-11T21:45:00.457Z,3.21
2023-04-11T21:47:28.110Z,3.18
2023-04-11T21:49:55.940Z,3.15
2023-04-11T21:52:24.931Z,3.13
2023-04-11T21:54:52.539Z,3.10
2023-04-11T21:57:20.245Z,3.10
2023-04-11T21:59:47.934Z,3.10
2023-04-11T22:02:15.764Z,3.09
2023-04-11T22:05:01.026Z,3.09
2023-04-11T22:07:38.449Z,3.08
2023-04-11T22:10:09.636Z,3.08
2023-04-11T22:12:37.728Z,3.06
2023-04-11T22:15:06.784Z,3.04
2023-04-11T22:17:34.956Z,3.02
2023-04-11T22:20:06.774Z,3.01
2023-04-11T22:22:36.348Z,2.98
2023-04-11T22:25:04.461Z,2.97
2023-04-11T22:27:34.597Z,2.95
2023-04-11T22:30:03.477Z,2.92
2023-04-11T22:32:31.146Z,2.89
2023-04-11T22:34:59.897Z,2.87
2023-04-11T22:37:27.693Z,2.84
2023-04-11T22:39:56.709Z,2.80
2023-04-11T22:42:24.723Z,2.79
2023-04-11T22:44:52.347Z,2.75
2023-04-11T22:47:21.758Z,2.73
2023-04-11T22:49:50.285Z,2.70
2023-04-11T22:52:24.319Z,2.66
2023-04-11T22:54:52.303Z,2.61
2023-04-11T22:57:21.588Z,2.57
2023-04-11T22:59:49.194Z,2.55
2023-04-11T23:02:17.366Z,2.52
2023-04-11T23:04:45.126Z,2.50
2023-04-11T23:07:12.838Z,2.47
2023-04-11T23:09:40.453Z,2.43
2023-04-11T23:12:08.343Z,2.41
2023-04-11T23:14:37.596Z,2.38
2023-04-11T23:17:05.280Z,2.36
2023-04-11T23:19:34.071Z,2.35
2023-04-11T23:22:01.707Z,2.30
2023-04-11T23:24:30.142Z,2.27
2023-04-11T23:26:58.437Z,2.23
2023-04-11T23:29:26.078Z,2.22
2023-04-11T23:31:55.078Z,2.19
2023-04-11T23:34:22.668Z,2.15
2023-04-11T23:36:50.394Z,2.13
2023-04-11T23:39:18.052Z,2.12
2023-04-11T23:41:45.749Z,2.08
2023-04-11T23:44:13.378Z,2.10
2023-04-11T23:46:41.278Z,2.08
2023-04-11T23:49:10.291Z,2.08
2023-04-11T23:51:38.204Z,2.05
2023-04-11T23:54:07.234Z,2.03
2023-04-11T23:56:34.884Z,2.03
2023-04-11T23:59:02.531Z,2.01
